sensor_id;sensor_type;location;lat;lon;timestamp;temperature;humidity
40434;DHT22;26146;51.114;5.654;2023-08-30T00:03:07;14.50;99.90
40434;DHT22;26146;51.114;5.654;2023-08-30T00:07:08;14.60;99.90
40434;DHT22;26146;51.114;5.654;2023-08-30T00:11:09;14.50;99.90
40434;DHT22;26146;51.114;5.654;2023-08-30T00:15:10;14.60;99.90
40434;DHT22;26146;51.114;5.654;2023-08-30T00:19:11;14.60;99.90
40434;DHT22;26146;51.114;5.654;2023-08-30T00:23:12;14.60;99.90
40434;DHT22;26146;51.114;5.654;2023-08-30T00:27:13;14.60;99.90
40434;DHT22;26146;51.114;5.654;2023-08-30T00:31:14;14.70;99.90
40434;DHT22;26146;51.114;5.654;2023-08-30T00:35:15;14.70;99.90
40434;DHT22;26146;51.114;5.654;2023-08-30T00:39:16;14.70;99.90
40434;DHT22;26146;51.114;5.654;2023-08-30T00:43:17;14.60;99.90
40434;DHT22;26146;51.114;5.654;2023-08-30T00:47:18;14.60;99.90
40434;DHT22;26146;51.114;5.654;2023-08-30T00:51:19;14.50;99.90
40434;DHT22;26146;51.114;5.654;2023-08-30T00:55:21;14.50;99.90
40434;DHT22;26146;51.114;5.654;2023-08-30T00:59:22;14.50;99.90
40434;DHT22;26146;51.114;5.654;2023-08-30T01:03:23;14.50;99.90
40434;DHT22;26146;51.114;5.654;2023-08-30T01:07:24;14.60;99.90
40434;DHT22;26146;51.114;5.654;2023-08-30T01:11:40;14.70;99.90
40434;DHT22;26146;51.114;5.654;2023-08-30T01:15:45;14.80;99.90
40434;DHT22;26146;51.114;5.654;2023-08-30T01:20:01;14.90;99.90
40434;DHT22;26146;51.114;5.654;2023-08-30T01:24:30;14.90;99.90
40434;DHT22;26146;51.114;5.654;2023-08-30T01:28:33;14.90;99.90
40434;DHT22;26146;51.114;5.654;2023-08-30T01:32:36;15.00;99.90
40434;DHT22;26146;51.114;5.654;2023-08-30T01:36:38;15.00;99.90
40434;DHT22;26146;51.114;5.654;2023-08-30T01:40:41;15.00;99.90
40434;DHT22;26146;51.114;5.654;2023-08-30T01:44:43;15.10;99.90
40434;DHT22;26146;51.114;5.654;2023-08-30T01:48:47;15.10;99.90
40434;DHT22;26146;51.114;5.654;2023-08-30T01:52:48;15.10;99.90
40434;DHT22;26146;51.114;5.654;2023-08-30T01:56:50;15.10;99.90
40434;DHT22;26146;51.114;5.654;2023-08-30T02:00:52;15.20;99.90
40434;DHT22;26146;51.114;5.654;2023-08-30T02:04:53;15.20;99.90
40434;DHT22;26146;51.114;5.654;2023-08-30T02:09:24;15.20;99.90
40434;DHT22;26146;51.114;5.654;2023-08-30T02:13:28;15.30;99.90
40434;DHT22;26146;51.114;5.654;2023-08-30T02:17:31;15.40;99.90
40434;DHT22;26146;51.114;5.654;2023-08-30T02:21:32;15.30;99.90
40434;DHT22;26146;51.114;5.654;2023-08-30T02:25:34;15.30;99.90
40434;DHT22;26146;51.114;5.654;2023-08-30T02:29:35;15.40;99.90
40434;DHT22;26146;51.114;5.654;2023-08-30T02:33:35;15.30;99.90
40434;DHT22;26146;51.114;5.654;2023-08-30T02:37:38;15.40;99.90
40434;DHT22;26146;51.114;5.654;2023-08-30T02:41:40;15.40;99.90
40434;DHT22;26146;51.114;5.654;2023-08-30T02:45:41;15.40;99.90
40434;DHT22;26146;51.114;5.654;2023-08-30T02:49:42;15.50;99.90
40434;DHT22;26146;51.114;5.654;2023-08-30T02:53:43;15.50;99.90
40434;DHT22;26146;51.114;5.654;2023-08-30T02:57:44;15.50;99.90
40434;DHT22;26146;51.114;5.654;2023-08-30T03:01:46;15.50;99.90
40434;DHT22;26146;51.114;5.654;2023-08-30T03:05:50;15.60;99.90
40434;DHT22;26146;51.114;5.654;2023-08-30T03:09:54;15.60;99.90
40434;DHT22;26146;51.114;5.654;2023-08-30T03:13:55;15.60;99.90
40434;DHT22;26146;51.114;5.654;2023-08-30T03:17:56;15.60;99.90
40434;DHT22;26146;51.114;5.654;2023-08-30T03:21:57;15.70;99.90
40434;DHT22;26146;51.114;5.654;2023-08-30T03:25:59;15.70;99.90
40434;DHT22;26146;51.114;5.654;2023-08-30T03:30:00;15.60;99.90
40434;DHT22;26146;51.114;5.654;2023-08-30T03:34:01;15.70;99.90
40434;DHT22;26146;51.114;5.654;2023-08-30T03:38:03;15.70;99.90
40434;DHT22;26146;51.114;5.654;2023-08-30T03:42:04;15.70;99.90
40434;DHT22;26146;51.114;5.654;2023-08-30T03:46:05;15.70;99.90
40434;DHT22;26146;51.114;5.654;2023-08-30T03:50:06;15.70;99.90
40434;DHT22;26146;51.114;5.654;2023-08-30T03:54:07;15.70;99.90
40434;DHT22;26146;51.114;5.654;2023-08-30T03:58:14;15.80;99.90
40434;DHT22;26146;51.114;5.654;2023-08-30T04:02:15;15.80;99.90
40434;DHT22;26146;51.114;5.654;2023-08-30T04:06:16;15.80;99.90
40434;DHT22;26146;51.114;5.654;2023-08-30T04:10:17;15.70;99.90
40434;DHT22;26146;51.114;5.654;2023-08-30T04:14:18;15.70;99.90
40434;DHT22;26146;51.114;5.654;2023-08-30T04:18:18;15.80;99.90
40434;DHT22;26146;51.114;5.654;2023-08-30T04:22:19;15.70;99.90
40434;DHT22;26146;51.114;5.654;2023-08-30T04:26:20;15.80;99.90
40434;DHT22;26146;51.114;5.654;2023-08-30T04:30:21;15.80;99.90
40434;DHT22;26146;51.114;5.654;2023-08-30T04:34:22;15.80;99.90
40434;DHT22;26146;51.114;5.654;2023-08-30T04:38:24;15.80;99.90
40434;DHT22;26146;51.114;5.654;2023-08-30T04:42:26;15.70;99.90
40434;DHT22;26146;51.114;5.654;2023-08-30T04:46:27;15.70;99.90
40434;DHT22;26146;51.114;5.654;2023-08-30T04:50:28;15.80;99.90
40434;DHT22;26146;51.114;5.654;2023-08-30T04:54:29;15.80;99.90
40434;DHT22;26146;51.114;5.654;2023-08-30T04:58:30;15.90;99.90
40434;DHT22;26146;51.114;5.654;2023-08-30T05:02:31;15.80;99.90
40434;DHT22;26146;51.114;5.654;2023-08-30T05:06:32;15.90;99.90
40434;DHT22;26146;51.114;5.654;2023-08-30T05:10:33;15.90;99.90
40434;DHT22;26146;51.114;5.654;2023-08-30T05:14:34;15.90;99.90
40434;DHT22;26146;51.114;5.654;2023-08-30T05:18:35;15.90;99.90
40434;DHT22;26146;51.114;5.654;2023-08-30T05:22:36;15.90;99.90
40434;DHT22;26146;51.114;5.654;2023-08-30T05:26:37;16.00;99.90
40434;DHT22;26146;51.114;5.654;2023-08-30T05:30:42;16.00;99.90
40434;DHT22;26146;51.114;5.654;2023-08-30T05:34:44;16.20;99.90
40434;DHT22;26146;51.114;5.654;2023-08-30T05:38:45;16.10;99.90
40434;DHT22;26146;51.114;5.654;2023-08-30T05:42:47;16.30;99.90
40434;DHT22;26146;51.114;5.654;2023-08-30T05:46:48;16.40;99.90
40434;DHT22;26146;51.114;5.654;2023-08-30T05:50:49;16.50;99.90
40434;DHT22;26146;51.114;5.654;2023-08-30T05:54:50;16.60;99.90
40434;DHT22;26146;51.114;5.654;2023-08-30T05:58:51;16.70;99.90
40434;DHT22;26146;51.114;5.654;2023-08-30T06:02:52;16.90;99.90
40434;DHT22;26146;51.114;5.654;2023-08-30T06:06:53;16.90;99.90
40434;DHT22;26146;51.114;5.654;2023-08-30T06:10:54;16.90;99.90
40434;DHT22;26146;51.114;5.654;2023-08-30T06:14:55;17.10;99.90
40434;DHT22;26146;51.114;5.654;2023-08-30T06:18:57;17.10;99.90
40434;DHT22;26146;51.114;5.654;2023-08-30T06:23:03;17.20;99.90
40434;DHT22;26146;51.114;5.654;2023-08-30T06:27:04;17.30;99.90
40434;DHT22;26146;51.114;5.654;2023-08-30T06:31:05;17.30;99.90
40434;DHT22;26146;51.114;5.654;2023-08-30T06:35:06;17.50;99.90
40434;DHT22;26146;51.114;5.654;2023-08-30T06:39:07;17.60;99.90
40434;DHT22;26146;51.114;5.654;2023-08-30T06:43:09;17.80;99.90
40434;DHT22;26146;51.114;5.654;2023-08-30T06:47:10;17.90;99.90
40434;DHT22;26146;51.114;5.654;2023-08-30T06:51:13;18.20;99.90
40434;DHT22;26146;51.114;5.654;2023-08-30T06:55:14;18.30;99.90
40434;DHT22;26146;51.114;5.654;2023-08-30T06:59:15;18.20;99.90
40434;DHT22;26146;51.114;5.654;2023-08-30T07:03:16;18.00;99.90
40434;DHT22;26146;51.114;5.654;2023-08-30T07:07:17;17.90;99.90
40434;DHT22;26146;51.114;5.654;2023-08-30T07:11:18;18.10;99.90
40434;DHT22;26146;51.114;5.654;2023-08-30T07:15:19;18.30;99.90
40434;DHT22;26146;51.114;5.654;2023-08-30T07:19:20;18.30;99.90
40434;DHT22;26146;51.114;5.654;2023-08-30T07:23:21;18.30;99.90
40434;DHT22;26146;51.114;5.654;2023-08-30T07:27:22;18.20;99.90
40434;DHT22;26146;51.114;5.654;2023-08-30T07:31:23;18.10;99.90
40434;DHT22;26146;51.114;5.654;2023-08-30T07:35:24;18.00;99.90
40434;DHT22;26146;51.114;5.654;2023-08-30T07:39:25;18.00;99.90
40434;DHT22;26146;51.114;5.654;2023-08-30T07:43:26;18.00;99.90
40434;DHT22;26146;51.114;5.654;2023-08-30T07:47:27;18.20;99.90
40434;DHT22;26146;51.114;5.654;2023-08-30T07:51:28;18.20;99.90
40434;DHT22;26146;51.114;5.654;2023-08-30T07:55:29;17.90;99.90
40434;DHT22;26146;51.114;5.654;2023-08-30T07:59:35;18.00;99.90
40434;DHT22;26146;51.114;5.654;2023-08-30T08:03:36;18.20;99.90
40434;DHT22;26146;51.114;5.654;2023-08-30T08:07:43;18.30;99.90
40434;DHT22;26146;51.114;5.654;2023-08-30T08:11:44;18.40;99.90
40434;DHT22;26146;51.114;5.654;2023-08-30T08:15:45;18.70;99.90
40434;DHT22;26146;51.114;5.654;2023-08-30T08:19:46;19.00;99.90
40434;DHT22;26146;51.114;5.654;2023-08-30T08:23:49;19.10;99.90
40434;DHT22;26146;51.114;5.654;2023-08-30T08:27:50;19.00;99.90
40434;DHT22;26146;51.114;5.654;2023-08-30T08:31:51;18.80;99.90
40434;DHT22;26146;51.114;5.654;2023-08-30T08:35:52;18.80;99.90
40434;DHT22;26146;51.114;5.654;2023-08-30T08:39:54;18.80;99.90
40434;DHT22;26146;51.114;5.654;2023-08-30T08:43:55;18.60;99.90
40434;DHT22;26146;51.114;5.654;2023-08-30T08:47:56;18.60;99.90
40434;DHT22;26146;51.114;5.654;2023-08-30T08:51:57;18.70;99.90
40434;DHT22;26146;51.114;5.654;2023-08-30T08:55:58;18.60;99.90
40434;DHT22;26146;51.114;5.654;2023-08-30T09:00:01;18.30;99.90
40434;DHT22;26146;51.114;5.654;2023-08-30T09:04:06;18.30;99.90
40434;DHT22;26146;51.114;5.654;2023-08-30T09:08:10;18.20;99.90
40434;DHT22;26146;51.114;5.654;2023-08-30T09:12:12;18.20;99.90
40434;DHT22;26146;51.114;5.654;2023-08-30T09:16:14;18.10;99.90
40434;DHT22;26146;51.114;5.654;2023-08-30T09:20:15;18.00;99.90
40434;DHT22;26146;51.114;5.654;2023-08-30T09:24:16;17.90;99.90
40434;DHT22;26146;51.114;5.654;2023-08-30T09:28:17;17.80;99.90
40434;DHT22;26146;51.114;5.654;2023-08-30T09:32:21;17.90;99.90
40434;DHT22;26146;51.114;5.654;2023-08-30T09:36:22;18.00;99.90
40434;DHT22;26146;51.114;5.654;2023-08-30T09:40:23;18.20;99.90
40434;DHT22;26146;51.114;5.654;2023-08-30T09:44:29;18.30;99.90
40434;DHT22;26146;51.114;5.654;2023-08-30T09:48:30;18.70;99.90
40434;DHT22;26146;51.114;5.654;2023-08-30T09:52:32;19.00;99.90
40434;DHT22;26146;51.114;5.654;2023-08-30T09:56:35;19.40;99.90
40434;DHT22;26146;51.114;5.654;2023-08-30T10:00:36;19.60;99.90
40434;DHT22;26146;51.114;5.654;2023-08-30T10:04:38;19.80;99.90
40434;DHT22;26146;51.114;5.654;2023-08-30T10:08:44;19.90;99.90
40434;DHT22;26146;51.114;5.654;2023-08-30T10:12:49;20.00;99.90
40434;DHT22;26146;51.114;5.654;2023-08-30T10:16:51;19.80;99.90
40434;DHT22;26146;51.114;5.654;2023-08-30T10:20:59;19.70;99.90
40434;DHT22;26146;51.114;5.654;2023-08-30T10:25:10;19.80;99.90
40434;DHT22;26146;51.114;5.654;2023-08-30T10:29:13;19.90;99.90
40434;DHT22;26146;51.114;5.654;2023-08-30T10:33:16;19.60;99.90
40434;DHT22;26146;51.114;5.654;2023-08-30T10:37:27;19.40;99.90
40434;DHT22;26146;51.114;5.654;2023-08-30T10:41:28;19.40;99.90
40434;DHT22;26146;51.114;5.654;2023-08-30T10:45:29;19.90;99.90
40434;DHT22;26146;51.114;5.654;2023-08-30T10:49:39;20.40;99.90
40434;DHT22;26146;51.114;5.654;2023-08-30T10:53:42;20.80;99.90
40434;DHT22;26146;51.114;5.654;2023-08-30T10:57:44;20.90;99.90
40434;DHT22;26146;51.114;5.654;2023-08-30T11:01:49;20.80;99.90
40434;DHT22;26146;51.114;5.654;2023-08-30T11:05:52;20.50;99.90
40434;DHT22;26146;51.114;5.654;2023-08-30T11:09:53;20.10;99.90
40434;DHT22;26146;51.114;5.654;2023-08-30T11:13:54;19.80;99.90
40434;DHT22;26146;51.114;5.654;2023-08-30T11:18:03;19.50;99.90
40434;DHT22;26146;51.114;5.654;2023-08-30T11:22:04;19.20;99.90
40434;DHT22;26146;51.114;5.654;2023-08-30T11:26:05;19.00;99.90
40434;DHT22;26146;51.114;5.654;2023-08-30T11:30:09;19.10;99.90
40434;DHT22;26146;51.114;5.654;2023-08-30T11:34:10;19.40;99.90
40434;DHT22;26146;51.114;5.654;2023-08-30T11:38:11;19.80;99.90
40434;DHT22;26146;51.114;5.654;2023-08-30T11:42:13;20.20;99.90
40434;DHT22;26146;51.114;5.654;2023-08-30T11:46:17;20.20;99.90
40434;DHT22;26146;51.114;5.654;2023-08-30T11:50:19;20.10;99.90
40434;DHT22;26146;51.114;5.654;2023-08-30T11:54:21;20.10;99.90
40434;DHT22;26146;51.114;5.654;2023-08-30T11:58:22;19.80;99.90
40434;DHT22;26146;51.114;5.654;2023-08-30T12:02:23;19.80;99.90
40434;DHT22;26146;51.114;5.654;2023-08-30T12:06:24;19.70;99.90
40434;DHT22;26146;51.114;5.654;2023-08-30T12:10:25;19.70;99.90
40434;DHT22;26146;51.114;5.654;2023-08-30T12:14:33;19.90;99.90
40434;DHT22;26146;51.114;5.654;2023-08-30T12:18:34;20.20;99.90
40434;DHT22;26146;51.114;5.654;2023-08-30T12:26:37;20.50;99.90
40434;DHT22;26146;51.114;5.654;2023-08-30T12:30:39;20.60;99.90
40434;DHT22;26146;51.114;5.654;2023-08-30T12:34:39;20.80;99.90
40434;DHT22;26146;51.114;5.654;2023-08-30T12:38:42;20.70;99.90
40434;DHT22;26146;51.114;5.654;2023-08-30T12:42:42;20.70;99.90
40434;DHT22;26146;51.114;5.654;2023-08-30T12:46:43;20.60;99.90
40434;DHT22;26146;51.114;5.654;2023-08-30T12:50:46;20.30;99.90
40434;DHT22;26146;51.114;5.654;2023-08-30T12:54:47;20.10;99.90
40434;DHT22;26146;51.114;5.654;2023-08-30T12:58:48;19.90;99.90
40434;DHT22;26146;51.114;5.654;2023-08-30T13:02:50;19.70;99.90
40434;DHT22;26146;51.114;5.654;2023-08-30T13:06:51;19.40;99.90
40434;DHT22;26146;51.114;5.654;2023-08-30T13:10:52;19.30;99.90
40434;DHT22;26146;51.114;5.654;2023-08-30T13:14:53;19.30;99.90
40434;DHT22;26146;51.114;5.654;2023-08-30T13:18:54;19.20;99.90
40434;DHT22;26146;51.114;5.654;2023-08-30T13:22:55;19.10;99.90
40434;DHT22;26146;51.114;5.654;2023-08-30T13:26:56;19.10;99.90
40434;DHT22;26146;51.114;5.654;2023-08-30T13:30:57;19.00;99.90
40434;DHT22;26146;51.114;5.654;2023-08-30T13:34:58;19.00;99.90
40434;DHT22;26146;51.114;5.654;2023-08-30T13:38:59;19.10;99.90
40434;DHT22;26146;51.114;5.654;2023-08-30T13:43:01;19.20;99.90
40434;DHT22;26146;51.114;5.654;2023-08-30T13:47:02;19.60;99.90
40434;DHT22;26146;51.114;5.654;2023-08-30T13:51:03;19.90;99.90
40434;DHT22;26146;51.114;5.654;2023-08-30T13:55:04;20.40;99.90
40434;DHT22;26146;51.114;5.654;2023-08-30T13:59:05;20.80;99.90
40434;DHT22;26146;51.114;5.654;2023-08-30T14:03:07;20.90;99.90
40434;DHT22;26146;51.114;5.654;2023-08-30T14:07:11;20.70;99.90
40434;DHT22;26146;51.114;5.654;2023-08-30T14:11:12;20.60;99.90
40434;DHT22;26146;51.114;5.654;2023-08-30T14:15:15;20.60;99.90
40434;DHT22;26146;51.114;5.654;2023-08-30T14:19:16;20.60;99.90
40434;DHT22;26146;51.114;5.654;2023-08-30T14:23:17;20.70;99.90
40434;DHT22;26146;51.114;5.654;2023-08-30T14:27:18;20.80;99.90
40434;DHT22;26146;51.114;5.654;2023-08-30T14:31:19;20.90;99.90
40434;DHT22;26146;51.114;5.654;2023-08-30T14:35:20;20.80;99.90
40434;DHT22;26146;51.114;5.654;2023-08-30T14:39:21;20.10;99.90
40434;DHT22;26146;51.114;5.654;2023-08-30T14:43:22;19.60;99.90
40434;DHT22;26146;51.114;5.654;2023-08-30T14:47:23;19.20;99.90
40434;DHT22;26146;51.114;5.654;2023-08-30T14:51:25;19.10;99.90
40434;DHT22;26146;51.114;5.654;2023-08-30T14:55:26;19.00;99.90
40434;DHT22;26146;51.114;5.654;2023-08-30T14:59:27;19.00;99.90
40434;DHT22;26146;51.114;5.654;2023-08-30T15:03:29;19.00;99.90
40434;DHT22;26146;51.114;5.654;2023-08-30T15:07:30;18.80;99.90
40434;DHT22;26146;51.114;5.654;2023-08-30T15:11:31;18.80;99.90
40434;DHT22;26146;51.114;5.654;2023-08-30T15:15:32;18.80;99.90
40434;DHT22;26146;51.114;5.654;2023-08-30T15:19:33;18.80;99.90
40434;DHT22;26146;51.114;5.654;2023-08-30T15:23:34;18.80;99.90
40434;DHT22;26146;51.114;5.654;2023-08-30T15:27:38;18.70;99.90
40434;DHT22;26146;51.114;5.654;2023-08-30T15:31:39;18.60;99.90
40434;DHT22;26146;51.114;5.654;2023-08-30T15:35:41;18.60;99.90
40434;DHT22;26146;51.114;5.654;2023-08-30T15:39:42;18.50;99.90
40434;DHT22;26146;51.114;5.654;2023-08-30T15:43:43;18.90;99.90
40434;DHT22;26146;51.114;5.654;2023-08-30T15:47:44;19.00;99.90
40434;DHT22;26146;51.114;5.654;2023-08-30T15:51:45;18.80;99.90
40434;DHT22;26146;51.114;5.654;2023-08-30T15:55:46;18.50;99.90
40434;DHT22;26146;51.114;5.654;2023-08-30T15:59:47;18.70;99.90
40434;DHT22;26146;51.114;5.654;2023-08-30T16:03:48;18.50;99.90
40434;DHT22;26146;51.114;5.654;2023-08-30T16:07:49;18.50;99.90
40434;DHT22;26146;51.114;5.654;2023-08-30T16:11:50;18.50;99.90
40434;DHT22;26146;51.114;5.654;2023-08-30T16:15:51;18.50;99.90
40434;DHT22;26146;51.114;5.654;2023-08-30T16:19:52;18.70;99.90
40434;DHT22;26146;51.114;5.654;2023-08-30T16:23:54;18.70;99.90
40434;DHT22;26146;51.114;5.654;2023-08-30T16:27:55;18.60;99.90
40434;DHT22;26146;51.114;5.654;2023-08-30T16:31:56;18.60;99.90
40434;DHT22;26146;51.114;5.654;2023-08-30T16:35:59;18.50;99.90
40434;DHT22;26146;51.114;5.654;2023-08-30T16:40:00;18.50;99.90
40434;DHT22;26146;51.114;5.654;2023-08-30T16:44:01;18.40;99.90
40434;DHT22;26146;51.114;5.654;2023-08-30T16:48:04;18.20;99.90
40434;DHT22;26146;51.114;5.654;2023-08-30T16:52:07;18.20;99.90
40434;DHT22;26146;51.114;5.654;2023-08-30T16:56:10;18.20;99.90
40434;DHT22;26146;51.114;5.654;2023-08-30T17:00:12;18.00;99.90
40434;DHT22;26146;51.114;5.654;2023-08-30T17:04:13;17.90;99.90
40434;DHT22;26146;51.114;5.654;2023-08-30T17:08:16;17.90;99.90
40434;DHT22;26146;51.114;5.654;2023-08-30T17:12:17;17.90;99.90
40434;DHT22;26146;51.114;5.654;2023-08-30T17:16:18;17.90;99.90
40434;DHT22;26146;51.114;5.654;2023-08-30T17:20:19;17.90;99.90
40434;DHT22;26146;51.114;5.654;2023-08-30T17:24:20;17.80;99.90
40434;DHT22;26146;51.114;5.654;2023-08-30T17:28:21;17.70;99.90
40434;DHT22;26146;51.114;5.654;2023-08-30T17:32:22;17.60;99.90
40434;DHT22;26146;51.114;5.654;2023-08-30T17:36:24;17.70;99.90
40434;DHT22;26146;51.114;5.654;2023-08-30T17:40:30;17.60;99.90
40434;DHT22;26146;51.114;5.654;2023-08-30T17:44:32;17.50;99.90
40434;DHT22;26146;51.114;5.654;2023-08-30T17:48:33;17.50;99.90
40434;DHT22;26146;51.114;5.654;2023-08-30T17:52:35;17.30;99.90
40434;DHT22;26146;51.114;5.654;2023-08-30T17:56:36;17.20;99.90
40434;DHT22;26146;51.114;5.654;2023-08-30T18:00:37;17.00;99.90
40434;DHT22;26146;51.114;5.654;2023-08-30T18:04:39;16.80;99.90
40434;DHT22;26146;51.114;5.654;2023-08-30T18:08:42;16.80;99.90
40434;DHT22;26146;51.114;5.654;2023-08-30T18:12:43;16.70;99.90
40434;DHT22;26146;51.114;5.654;2023-08-30T18:16:44;16.70;99.90
40434;DHT22;26146;51.114;5.654;2023-08-30T18:20:46;16.70;99.90
40434;DHT22;26146;51.114;5.654;2023-08-30T18:24:47;16.60;99.90
40434;DHT22;26146;51.114;5.654;2023-08-30T18:28:48;16.50;99.90
40434;DHT22;26146;51.114;5.654;2023-08-30T18:32:49;16.40;99.90
40434;DHT22;26146;51.114;5.654;2023-08-30T18:36:50;16.30;99.90
40434;DHT22;26146;51.114;5.654;2023-08-30T18:40:51;16.20;99.90
40434;DHT22;26146;51.114;5.654;2023-08-30T18:44:52;16.10;99.90
40434;DHT22;26146;51.114;5.654;2023-08-30T18:48:54;16.00;99.90
40434;DHT22;26146;51.114;5.654;2023-08-30T18:52:56;15.90;99.90
40434;DHT22;26146;51.114;5.654;2023-08-30T18:56:57;15.80;99.90
40434;DHT22;26146;51.114;5.654;2023-08-30T19:00:59;15.60;99.90
40434;DHT22;26146;51.114;5.654;2023-08-30T19:05:01;15.50;99.90
40434;DHT22;26146;51.114;5.654;2023-08-30T19:09:02;15.50;99.90
40434;DHT22;26146;51.114;5.654;2023-08-30T19:13:05;15.40;99.90
40434;DHT22;26146;51.114;5.654;2023-08-30T19:17:06;15.30;99.90
40434;DHT22;26146;51.114;5.654;2023-08-30T19:21:07;15.30;99.90
40434;DHT22;26146;51.114;5.654;2023-08-30T19:25:09;15.10;99.90
40434;DHT22;26146;51.114;5.654;2023-08-30T19:29:15;15.10;99.90
40434;DHT22;26146;51.114;5.654;2023-08-30T19:33:16;15.20;99.90
40434;DHT22;26146;51.114;5.654;2023-08-30T19:37:18;15.10;99.90
40434;DHT22;26146;51.114;5.654;2023-08-30T19:41:24;15.10;99.90
40434;DHT22;26146;51.114;5.654;2023-08-30T19:45:26;15.10;99.90
40434;DHT22;26146;51.114;5.654;2023-08-30T19:49:27;15.00;99.90
40434;DHT22;26146;51.114;5.654;2023-08-30T19:53:28;15.00;99.90
40434;DHT22;26146;51.114;5.654;2023-08-30T19:57:29;15.10;99.90
40434;DHT22;26146;51.114;5.654;2023-08-30T20:01:31;15.10;99.90
40434;DHT22;26146;51.114;5.654;2023-08-30T20:05:34;15.10;99.90
40434;DHT22;26146;51.114;5.654;2023-08-30T20:09:36;15.10;99.90
40434;DHT22;26146;51.114;5.654;2023-08-30T20:13:38;15.10;99.90
40434;DHT22;26146;51.114;5.654;2023-08-30T20:17:39;15.10;99.90
40434;DHT22;26146;51.114;5.654;2023-08-30T20:21:41;15.20;99.90
40434;DHT22;26146;51.114;5.654;2023-08-30T20:25:43;15.20;99.90
40434;DHT22;26146;51.114;5.654;2023-08-30T20:29:45;15.30;99.90
40434;DHT22;26146;51.114;5.654;2023-08-30T20:33:46;15.30;99.90
40434;DHT22;26146;51.114;5.654;2023-08-30T20:37:49;15.30;99.90
40434;DHT22;26146;51.114;5.654;2023-08-30T20:41:52;15.30;99.90
40434;DHT22;26146;51.114;5.654;2023-08-30T20:45:57;15.30;99.90
40434;DHT22;26146;51.114;5.654;2023-08-30T20:49:58;15.40;99.90
40434;DHT22;26146;51.114;5.654;2023-08-30T20:53:59;15.40;99.90
40434;DHT22;26146;51.114;5.654;2023-08-30T20:58:03;15.50;99.90
40434;DHT22;26146;51.114;5.654;2023-08-30T21:02:05;15.50;99.90
40434;DHT22;26146;51.114;5.654;2023-08-30T21:06:07;15.60;99.90
40434;DHT22;26146;51.114;5.654;2023-08-30T21:10:09;15.60;99.90
40434;DHT22;26146;51.114;5.654;2023-08-30T21:14:10;15.40;99.90
40434;DHT22;26146;51.114;5.654;2023-08-30T21:18:13;15.60;99.90
40434;DHT22;26146;51.114;5.654;2023-08-30T21:22:14;15.60;99.90
40434;DHT22;26146;51.114;5.654;2023-08-30T21:26:15;15.60;99.90
40434;DHT22;26146;51.114;5.654;2023-08-30T21:30:17;15.70;99.90
40434;DHT22;26146;51.114;5.654;2023-08-30T21:34:18;15.60;99.90
40434;DHT22;26146;51.114;5.654;2023-08-30T21:38:19;15.50;99.90
40434;DHT22;26146;51.114;5.654;2023-08-30T21:42:21;15.60;99.90
40434;DHT22;26146;51.114;5.654;2023-08-30T21:46:22;15.20;99.90
40434;DHT22;26146;51.114;5.654;2023-08-30T21:50:23;15.10;99.90
40434;DHT22;26146;51.114;5.654;2023-08-30T21:54:24;15.10;99.90
40434;DHT22;26146;51.114;5.654;2023-08-30T21:58:25;15.10;99.90
40434;DHT22;26146;51.114;5.654;2023-08-30T22:02:26;15.00;99.90
40434;DHT22;26146;51.114;5.654;2023-08-30T22:06:27;14.90;99.90
40434;DHT22;26146;51.114;5.654;2023-08-30T22:10:28;14.30;99.90
40434;DHT22;26146;51.114;5.654;2023-08-30T22:14:30;14.30;99.90
40434;DHT22;26146;51.114;5.654;2023-08-30T22:18:31;14.20;99.90
40434;DHT22;26146;51.114;5.654;2023-08-30T22:22:33;14.40;99.90
40434;DHT22;26146;51.114;5.654;2023-08-30T22:26:34;14.50;99.90
40434;DHT22;26146;51.114;5.654;2023-08-30T22:30:35;14.60;99.90
40434;DHT22;26146;51.114;5.654;2023-08-30T22:34:36;14.50;99.90
40434;DHT22;26146;51.114;5.654;2023-08-30T22:38:37;14.50;99.90
40434;DHT22;26146;51.114;5.654;2023-08-30T22:42:39;14.40;99.90
40434;DHT22;26146;51.114;5.654;2023-08-30T22:46:40;14.30;99.90
40434;DHT22;26146;51.114;5.654;2023-08-30T22:50:42;14.30;99.90
40434;DHT22;26146;51.114;5.654;2023-08-30T22:54:43;14.30;99.90
40434;DHT22;26146;51.114;5.654;2023-08-30T22:58:45;14.10;99.90
40434;DHT22;26146;51.114;5.654;2023-08-30T23:02:46;14.20;99.90
40434;DHT22;26146;51.114;5.654;2023-08-30T23:06:48;14.20;99.90
40434;DHT22;26146;51.114;5.654;2023-08-30T23:10:50;14.20;99.90
40434;DHT22;26146;51.114;5.654;2023-08-30T23:14:51;14.20;99.90
40434;DHT22;26146;51.114;5.654;2023-08-30T23:18:52;14.00;99.90
40434;DHT22;26146;51.114;5.654;2023-08-30T23:22:53;14.00;99.90
40434;DHT22;26146;51.114;5.654;2023-08-30T23:26:56;14.00;99.90
40434;DHT22;26146;51.114;5.654;2023-08-30T23:30:57;13.90;99.90
40434;DHT22;26146;51.114;5.654;2023-08-30T23:34:59;13.90;99.90
40434;DHT22;26146;51.114;5.654;2023-08-30T23:39:00;13.90;99.90
40434;DHT22;26146;51.114;5.654;2023-08-30T23:43:01;13.80;99.90
40434;DHT22;26146;51.114;5.654;2023-08-30T23:47:03;13.80;99.90
40434;DHT22;26146;51.114;5.654;2023-08-30T23:51:04;13.70;99.90
40434;DHT22;26146;51.114;5.654;2023-08-30T23:55:05;13.60;99.90
40434;DHT22;26146;51.114;5.654;2023-08-30T23:59:06;13.60;99.90
